createdAt,value
2017-12-31T00:00:42.940Z,78.78
2017-12-31T00:01:47.632Z,78.93
2017-12-31T00:02:52.163Z,79.02
2017-12-31T00:03:56.646Z,79.56
2017-12-31T00:05:01.221Z,79.55
2017-12-31T00:06:05.752Z,79.59
2017-12-31T00:07:10.227Z,80.04
2017-12-31T00:08:14.725Z,79.86
2017-12-31T00:09:19.448Z,79.80
2017-12-31T00:10:23.907Z,79.78
2017-12-31T00:11:28.647Z,79.67
2017-12-31T00:12:33.117Z,79.69
2017-12-31T00:13:37.563Z,79.97
2017-12-31T00:14:41.979Z,79.89
2017-12-31T00:15:47.495Z,79.76
2017-12-31T00:16:52.308Z,79.93
2017-12-31T00:17:56.748Z,79.81
2017-12-31T00:19:01.357Z,79.87
2017-12-31T00:20:06.115Z,80.10
2017-12-31T00:21:10.507Z,79.97
2017-12-31T00:22:15.031Z,80.12
2017-12-31T00:23:19.458Z,80.30
2017-12-31T00:24:23.804Z,79.94
2017-12-31T00:25:45.232Z,79.97
2017-12-31T00:26:50.368Z,79.98
2017-12-31T00:27:54.801Z,80.27
2017-12-31T00:28:59.401Z,80.27
2017-12-31T00:30:05.564Z,80.53
2017-12-31T00:32:19.457Z,80.72
2017-12-31T00:33:23.901Z,80.77
2017-12-31T00:34:28.346Z,80.94
2017-12-31T00:35:33.136Z,81.25
2017-12-31T00:36:37.554Z,81.21
2017-12-31T00:37:42.019Z,81.38
2017-12-31T00:38:46.504Z,81.59
2017-12-31T00:39:50.966Z,81.71
2017-12-31T00:40:55.586Z,81.77
2017-12-31T00:41:59.989Z,82.06
2017-12-31T00:43:04.422Z,81.91
2017-12-31T00:44:08.908Z,82.10
2017-12-31T00:45:15.488Z,82.15
2017-12-31T00:46:20.924Z,82.30
2017-12-31T00:47:25.328Z,81.98
2017-12-31T00:48:31.017Z,82.21
2017-12-31T00:49:35.445Z,82.02
2017-12-31T00:50:40.028Z,82.15
2017-12-31T00:51:44.580Z,82.31
2017-12-31T00:54:02.960Z,82.45
2017-12-31T00:55:07.429Z,82.54
2017-12-31T00:56:14.713Z,82.72
2017-12-31T00:57:19.076Z,82.64
2017-12-31T00:58:23.452Z,82.71
2017-12-31T00:59:28.456Z,82.71
2017-12-31T01:00:33.666Z,83.01
2017-12-31T01:01:38.247Z,82.47
2017-12-31T01:02:42.708Z,82.35
2017-12-31T01:03:47.434Z,82.46
2017-12-31T01:04:51.891Z,82.17
2017-12-31T01:05:56.467Z,81.85
2017-12-31T01:07:01.174Z,81.95
2017-12-31T01:08:05.606Z,81.44
2017-12-31T01:09:10.151Z,81.03
2017-12-31T01:10:14.916Z,80.88
2017-12-31T01:11:19.473Z,81.13
2017-12-31T01:12:23.896Z,81.62
2017-12-31T01:13:28.444Z,81.75
2017-12-31T01:14:33.041Z,82.10
2017-12-31T01:15:38.015Z,82.65
2017-12-31T01:16:42.848Z,82.90
2017-12-31T01:17:47.250Z,83.00
2017-12-31T01:18:52.549Z,83.27
2017-12-31T01:19:56.930Z,83.27
2017-12-31T01:21:01.364Z,83.47
2017-12-31T01:22:05.886Z,83.34
2017-12-31T01:23:10.267Z,83.43
2017-12-31T01:24:14.758Z,83.71
2017-12-31T01:25:19.171Z,83.75
2017-12-31T01:26:23.657Z,83.75
2017-12-31T01:27:28.148Z,83.77
2017-12-31T01:28:32.526Z,83.74
2017-12-31T01:29:36.978Z,83.64
2017-12-31T01:30:41.833Z,83.66
2017-12-31T01:31:46.176Z,83.83
2017-12-31T01:32:51.760Z,83.46
2017-12-31T01:33:56.597Z,83.80
2017-12-31T01:35:00.997Z,83.76
2017-12-31T01:36:05.475Z,83.91
2017-12-31T01:37:09.879Z,84.02
2017-12-31T01:38:14.245Z,83.85
2017-12-31T01:39:18.714Z,83.94
2017-12-31T01:40:23.096Z,83.82
2017-12-31T01:41:27.565Z,83.81
2017-12-31T01:42:31.928Z,83.84
2017-12-31T01:43:36.437Z,83.80
2017-12-31T01:44:40.901Z,83.85
2017-12-31T01:45:45.476Z,83.92
2017-12-31T01:46:51.072Z,83.79
2017-12-31T01:47:55.744Z,83.50
2017-12-31T01:49:04.485Z,83.71
2017-12-31T01:50:08.831Z,83.57
2017-12-31T01:51:13.242Z,83.56
2017-12-31T01:52:17.615Z,83.56
2017-12-31T01:53:22.044Z,83.59
2017-12-31T01:54:26.354Z,83.35
2017-12-31T01:55:31.874Z,83.19
2017-12-31T01:56:36.532Z,83.24
2017-12-31T01:57:40.923Z,83.15
2017-12-31T01:58:45.901Z,83.01
2017-12-31T01:59:50.840Z,82.91
2017-12-31T02:00:55.577Z,82.83
2017-12-31T02:01:59.996Z,82.65
2017-12-31T02:03:04.394Z,82.72
2017-12-31T02:04:12.993Z,82.73
2017-12-31T02:05:17.349Z,83.12
2017-12-31T02:06:21.822Z,82.87
2017-12-31T02:07:26.137Z,82.68
2017-12-31T02:08:30.762Z,82.91
2017-12-31T02:09:35.264Z,83.21
2017-12-31T02:10:40.459Z,83.39
2017-12-31T02:11:44.793Z,83.53
2017-12-31T02:12:49.894Z,83.67
2017-12-31T02:13:54.371Z,83.78
2017-12-31T02:14:59.011Z,83.88
2017-12-31T02:16:03.414Z,84.02
2017-12-31T02:17:08.306Z,83.99
2017-12-31T02:18:12.864Z,84.08
2017-12-31T02:19:17.215Z,84.07
2017-12-31T02:20:21.727Z,84.08
2017-12-31T02:21:26.112Z,84.12
2017-12-31T02:22:30.468Z,84.09
2017-12-31T02:23:35.578Z,84.04
2017-12-31T02:24:39.984Z,84.02
2017-12-31T02:25:44.698Z,84.09
2017-12-31T02:26:50.025Z,83.97
2017-12-31T02:27:54.478Z,83.92
2017-12-31T02:28:58.957Z,83.86
2017-12-31T02:30:04.896Z,83.86
2017-12-31T02:31:09.522Z,83.84
2017-12-31T02:32:13.859Z,83.98
2017-12-31T02:33:18.283Z,83.83
2017-12-31T02:34:22.668Z,83.85
2017-12-31T02:35:28.171Z,84.00
2017-12-31T02:36:33.649Z,84.06
2017-12-31T02:37:38.016Z,84.04
2017-12-31T02:38:42.500Z,84.09
2017-12-31T02:39:46.876Z,83.91
2017-12-31T02:40:51.617Z,83.79
2017-12-31T02:41:56.711Z,83.75
2017-12-31T02:43:01.422Z,83.75
2017-12-31T02:44:17.464Z,83.62
2017-12-31T02:45:22.310Z,83.58
2017-12-31T02:46:26.725Z,83.39
2017-12-31T02:47:31.132Z,83.28
2017-12-31T02:48:35.709Z,83.10
2017-12-31T02:49:40.380Z,82.97
2017-12-31T02:50:44.847Z,82.95
2017-12-31T02:51:50.148Z,82.58
2017-12-31T02:52:54.593Z,82.38
2017-12-31T02:53:59.210Z,82.31
2017-12-31T02:55:03.580Z,82.20
2017-12-31T02:56:08.356Z,82.38
2017-12-31T02:57:13.295Z,82.37
2017-12-31T02:58:17.607Z,82.12
2017-12-31T02:59:22.137Z,82.16
2017-12-31T03:00:26.621Z,81.97
2017-12-31T03:01:31.655Z,81.87
2017-12-31T03:02:36.083Z,81.67
2017-12-31T03:03:40.487Z,81.81
2017-12-31T03:04:44.849Z,81.93
2017-12-31T03:05:49.210Z,81.76
2017-12-31T03:06:53.671Z,81.48
2017-12-31T03:07:58.095Z,81.41
2017-12-31T03:09:02.742Z,81.60
2017-12-31T03:10:07.182Z,81.62
2017-12-31T03:11:11.521Z,81.63
2017-12-31T03:12:16.915Z,81.33
2017-12-31T03:13:21.405Z,81.32
2017-12-31T03:14:25.822Z,81.56
2017-12-31T03:15:31.084Z,81.43
2017-12-31T03:16:35.776Z,80.81
2017-12-31T03:17:40.176Z,80.53
2017-12-31T03:18:44.661Z,80.28
2017-12-31T03:19:49.116Z,80.30
2017-12-31T03:20:53.793Z,80.31
2017-12-31T03:21:58.138Z,80.27
2017-12-31T03:23:02.965Z,80.62
2017-12-31T03:24:07.584Z,80.63
2017-12-31T03:25:12.334Z,80.30
2017-12-31T03:26:16.877Z,80.39
2017-12-31T03:27:21.242Z,80.46
2017-12-31T03:28:25.634Z,80.80
2017-12-31T03:29:30.716Z,81.17
2017-12-31T03:30:35.382Z,81.22
2017-12-31T03:31:40.125Z,81.14
2017-12-31T03:32:44.528Z,81.28
2017-12-31T03:33:48.932Z,81.32
2017-12-31T03:34:53.345Z,81.42
2017-12-31T03:35:57.789Z,81.62
2017-12-31T03:37:02.175Z,81.63
2017-12-31T03:38:06.860Z,81.45
2017-12-31T03:39:11.186Z,81.05
2017-12-31T03:40:15.824Z,81.17
2017-12-31T03:41:20.199Z,80.43
2017-12-31T03:42:24.821Z,80.38
2017-12-31T03:43:30.440Z,80.06
2017-12-31T03:44:35.190Z,79.95
2017-12-31T03:45:54.700Z,79.69
2017-12-31T03:46:59.069Z,80.01
2017-12-31T03:48:03.460Z,80.11
2017-12-31T03:49:07.912Z,80.61
2017-12-31T03:50:12.533Z,81.10
2017-12-31T03:51:17.304Z,80.72
2017-12-31T03:52:21.755Z,81.16
2017-12-31T03:53:26.061Z,81.14
2017-12-31T03:54:31.338Z,81.46
2017-12-31T03:55:35.683Z,81.87
2017-12-31T03:56:40.389Z,81.57
2017-12-31T03:57:45.006Z,81.91
2017-12-31T03:58:49.474Z,82.31
2017-12-31T03:59:53.821Z,82.53
2017-12-31T04:00:58.618Z,82.74
2017-12-31T04:02:03.336Z,83.05
2017-12-31T04:03:08.944Z,83.23
2017-12-31T04:04:13.827Z,83.11
2017-12-31T04:05:18.226Z,83.49
2017-12-31T04:06:22.602Z,83.22
2017-12-31T04:07:27.564Z,83.32
2017-12-31T04:08:32.819Z,83.12
2017-12-31T04:09:37.987Z,83.58
2017-12-31T04:10:42.452Z,83.75
2017-12-31T04:11:46.775Z,83.94
2017-12-31T04:12:51.207Z,84.03
2017-12-31T04:13:55.558Z,84.17
2017-12-31T04:15:00.685Z,84.59
2017-12-31T04:16:05.441Z,84.75
2017-12-31T04:17:10.071Z,84.99
2017-12-31T04:18:14.406Z,84.92
2017-12-31T04:19:18.752Z,84.97
2017-12-31T04:20:23.456Z,85.14
2017-12-31T04:21:27.859Z,85.18
2017-12-31T04:22:32.192Z,84.79
2017-12-31T04:23:36.516Z,84.69
2017-12-31T04:24:41.388Z,84.66
2017-12-31T04:25:45.712Z,84.81
2017-12-31T04:26:50.979Z,84.92
2017-12-31T04:27:55.312Z,84.94
2017-12-31T04:29:00.056Z,84.88
2017-12-31T04:30:06.557Z,85.05
2017-12-31T04:31:10.912Z,85.07
2017-12-31T04:32:15.632Z,85.14
2017-12-31T04:33:20.301Z,85.11
2017-12-31T04:34:24.643Z,85.24
2017-12-31T04:35:28.992Z,85.41
2017-12-31T04:36:33.336Z,85.91
2017-12-31T04:37:37.780Z,85.45
2017-12-31T04:38:42.189Z,85.60
2017-12-31T04:39:48.559Z,86.04
2017-12-31T04:40:52.916Z,86.04
2017-12-31T04:41:57.558Z,86.40
2017-12-31T04:43:01.943Z,86.74
2017-12-31T04:44:06.286Z,86.64
2017-12-31T04:45:12.246Z,86.33
2017-12-31T04:46:17.129Z,85.70
2017-12-31T04:47:21.994Z,85.55
2017-12-31T04:48:31.387Z,85.10
2017-12-31T04:49:35.914Z,85.15
2017-12-31T04:50:40.252Z,85.66
2017-12-31T04:51:44.585Z,85.20
2017-12-31T04:52:49.966Z,85.16
2017-12-31T04:53:54.424Z,85.51
2017-12-31T04:54:58.741Z,85.48
2017-12-31T04:56:03.184Z,85.82
2017-12-31T04:57:08.067Z,85.89
2017-12-31T04:58:12.550Z,86.56
2017-12-31T04:59:17.269Z,85.95
2017-12-31T05:00:26.589Z,85.85
2017-12-31T05:01:31.491Z,85.45
2017-12-31T05:02:35.890Z,85.50
2017-12-31T05:03:40.313Z,85.45
2017-12-31T05:04:45.059Z,85.30
2017-12-31T05:05:51.366Z,85.43
2017-12-31T05:06:55.754Z,85.31
2017-12-31T05:08:00.094Z,85.64
2017-12-31T05:09:04.679Z,86.20
2017-12-31T05:10:15.957Z,85.89
2017-12-31T05:11:20.721Z,86.02
2017-12-31T05:12:25.105Z,86.04
2017-12-31T05:13:29.679Z,86.20
2017-12-31T05:14:34.899Z,86.13
2017-12-31T05:15:39.707Z,86.58
2017-12-31T05:16:44.343Z,86.78
2017-12-31T05:17:49.200Z,86.36
2017-12-31T05:18:53.632Z,86.18
2017-12-31T05:19:58.010Z,86.39
2017-12-31T05:21:02.341Z,86.46
2017-12-31T05:22:06.685Z,86.06
2017-12-31T05:23:13.636Z,86.42
2017-12-31T05:24:18.116Z,86.44
2017-12-31T05:25:22.515Z,86.60
2017-12-31T05:26:28.556Z,86.68
2017-12-31T05:27:32.879Z,86.80
2017-12-31T05:28:37.208Z,86.26
2017-12-31T05:29:41.906Z,86.10
2017-12-31T05:30:46.499Z,86.30
2017-12-31T05:31:50.970Z,86.71
2017-12-31T05:32:55.831Z,86.29
2017-12-31T05:34:00.263Z,86.32
2017-12-31T05:35:04.633Z,86.07
2017-12-31T05:36:08.965Z,85.69
2017-12-31T05:37:13.281Z,85.96
2017-12-31T05:38:17.732Z,86.15
2017-12-31T05:39:22.078Z,86.12
2017-12-31T05:40:27.656Z,85.87
2017-12-31T05:41:32.868Z,85.47
2017-12-31T05:42:37.433Z,85.71
2017-12-31T05:43:41.865Z,85.61
2017-12-31T05:44:46.202Z,85.74
2017-12-31T05:45:50.883Z,85.73
2017-12-31T05:46:55.259Z,85.97
2017-12-31T05:47:59.941Z,85.78
2017-12-31T05:49:04.565Z,86.34
2017-12-31T05:50:08.879Z,86.41
2017-12-31T05:51:13.312Z,86.29
2017-12-31T05:52:17.745Z,86.43
2017-12-31T05:53:22.804Z,86.61
2017-12-31T05:54:27.210Z,86.68
2017-12-31T05:55:32.414Z,86.96
2017-12-31T05:56:36.716Z,87.16
2017-12-31T05:57:41.083Z,87.25
2017-12-31T05:58:45.368Z,87.73
2017-12-31T05:59:50.096Z,87.64
2017-12-31T06:00:54.822Z,87.66
2017-12-31T06:01:59.157Z,87.67
2017-12-31T06:03:03.468Z,87.71
2017-12-31T06:04:07.836Z,87.73
2017-12-31T06:05:12.229Z,88.04
2017-12-31T06:06:16.949Z,88.83
2017-12-31T06:07:21.300Z,88.59
2017-12-31T06:08:25.975Z,88.86
2017-12-31T06:09:31.315Z,89.17
2017-12-31T06:10:35.686Z,89.16
2017-12-31T06:11:40.077Z,89.09
2017-12-31T06:12:44.366Z,88.71
2017-12-31T06:13:48.717Z,88.70
2017-12-31T06:14:53.197Z,89.23
2017-12-31T06:15:57.722Z,89.55
2017-12-31T06:17:02.378Z,89.80
2017-12-31T06:18:06.676Z,89.69
2017-12-31T06:19:11.289Z,89.19
2017-12-31T06:20:15.702Z,89.42
2017-12-31T06:21:20.153Z,89.43
2017-12-31T06:22:24.756Z,89.69
2017-12-31T06:23:29.711Z,90.09
2017-12-31T06:24:37.347Z,90.39
2017-12-31T06:25:41.798Z,90.27
2017-12-31T06:26:46.097Z,90.42
2017-12-31T06:27:50.477Z,90.37
2017-12-31T06:28:54.815Z,90.13
2017-12-31T06:29:59.876Z,90.21
2017-12-31T06:31:05.130Z,90.76
2017-12-31T06:32:09.516Z,90.55
2017-12-31T06:33:19.275Z,90.28
2017-12-31T06:34:23.675Z,90.07
2017-12-31T06:35:28.039Z,89.80
2017-12-31T06:36:32.717Z,90.18
2017-12-31T06:37:37.142Z,90.00
2017-12-31T06:38:41.531Z,90.21
2017-12-31T06:39:46.715Z,90.43
2017-12-31T06:40:52.074Z,90.93
2017-12-31T06:41:56.463Z,90.90
2017-12-31T06:43:01.110Z,90.96
2017-12-31T06:44:05.434Z,90.76
2017-12-31T06:45:12.027Z,90.75
2017-12-31T06:46:16.368Z,90.58
2017-12-31T06:47:20.634Z,91.08
2017-12-31T06:48:24.923Z,91.14
2017-12-31T06:49:29.582Z,91.34
2017-12-31T06:50:33.882Z,91.11
2017-12-31T06:51:38.281Z,90.69
2017-12-31T06:52:42.688Z,91.10
2017-12-31T06:53:47.605Z,90.92
2017-12-31T06:54:52.070Z,90.85
2017-12-31T06:55:56.861Z,90.78
2017-12-31T06:57:01.197Z,90.98
2017-12-31T06:58:05.663Z,91.14
2017-12-31T06:59:09.992Z,90.79
2017-12-31T07:00:17.460Z,91.07
2017-12-31T07:01:25.270Z,91.15
2017-12-31T07:02:29.664Z,91.03
2017-12-31T07:03:34.036Z,91.67
2017-12-31T07:04:38.367Z,91.68
2017-12-31T07:05:44.243Z,91.33
2017-12-31T07:06:48.538Z,91.36
2017-12-31T07:07:53.248Z,91.26
2017-12-31T07:08:58.095Z,91.18
2017-12-31T07:10:02.430Z,91.41
2017-12-31T07:11:06.863Z,91.71
2017-12-31T07:12:11.173Z,91.71
2017-12-31T07:13:15.599Z,91.79
2017-12-31T07:14:20.220Z,91.60
2017-12-31T07:15:24.631Z,91.72
2017-12-31T07:16:29.976Z,91.78
2017-12-31T07:17:41.205Z,92.23
2017-12-31T07:18:45.697Z,91.90
2017-12-31T07:19:52.952Z,92.24
2017-12-31T07:20:57.429Z,92.80
2017-12-31T07:22:01.740Z,92.68
2017-12-31T07:23:06.110Z,92.48
2017-12-31T07:24:10.463Z,92.10
2017-12-31T07:25:14.846Z,92.08
2017-12-31T07:26:19.190Z,91.93
2017-12-31T07:27:30.951Z,91.93
2017-12-31T07:28:35.381Z,92.07
2017-12-31T07:29:39.704Z,92.16
2017-12-31T07:30:44.384Z,92.47
2017-12-31T07:31:49.773Z,93.00
2017-12-31T07:32:54.177Z,93.50
2017-12-31T07:33:58.821Z,93.78
2017-12-31T07:35:03.125Z,94.09
2017-12-31T07:36:07.431Z,94.11
2017-12-31T07:37:11.836Z,94.35
2017-12-31T07:38:16.204Z,94.04
2017-12-31T07:39:20.541Z,93.90
2017-12-31T07:40:28.270Z,93.34
2017-12-31T07:41:32.695Z,92.85
2017-12-31T07:42:36.996Z,92.52
2017-12-31T07:43:41.433Z,92.56
2017-12-31T07:44:45.745Z,92.56
2017-12-31T07:45:51.179Z,92.83
2017-12-31T07:46:57.449Z,92.77
2017-12-31T07:48:01.830Z,92.81
2017-12-31T07:49:06.143Z,92.90
2017-12-31T07:50:10.557Z,92.70
2017-12-31T07:51:14.888Z,92.67
2017-12-31T07:52:19.790Z,92.85
2017-12-31T07:53:24.232Z,92.83
2017-12-31T07:54:28.574Z,93.03
2017-12-31T07:55:32.986Z,92.90
2017-12-31T07:56:37.533Z,92.64
2017-12-31T07:57:42.004Z,92.76
2017-12-31T07:58:47.822Z,93.06
2017-12-31T07:59:53.140Z,93.60
2017-12-31T08:00:57.835Z,93.68
2017-12-31T08:02:03.985Z,93.43
2017-12-31T08:03:08.323Z,93.72
2017-12-31T08:04:12.656Z,93.65
2017-12-31T08:05:16.955Z,93.43
2017-12-31T08:06:23.796Z,93.12
2017-12-31T08:07:28.392Z,92.93
2017-12-31T08:08:33.922Z,93.01
2017-12-31T08:09:38.364Z,92.85
2017-12-31T08:10:43.020Z,92.80
2017-12-31T08:11:48.224Z,92.75
2017-12-31T08:12:53.089Z,92.88
2017-12-31T08:13:57.405Z,93.01
2017-12-31T08:15:04.532Z,93.44
2017-12-31T08:16:09.006Z,93.69
2017-12-31T08:17:13.927Z,93.83
2017-12-31T08:18:18.343Z,93.82
2017-12-31T08:19:22.679Z,93.96
2017-12-31T08:20:28.256Z,94.22
2017-12-31T08:21:33.326Z,94.13
2017-12-31T08:22:38.657Z,94.15
2017-12-31T08:23:43.418Z,94.02
2017-12-31T08:24:47.815Z,93.96
2017-12-31T08:25:52.259Z,93.97
2017-12-31T08:26:56.577Z,94.00
2017-12-31T08:28:00.972Z,94.10
2017-12-31T08:29:05.331Z,94.25
2017-12-31T08:30:09.748Z,94.38
2017-12-31T08:31:14.492Z,94.51
2017-12-31T08:32:26.534Z,94.33
2017-12-31T08:33:30.942Z,94.27
2017-12-31T08:34:35.281Z,93.96
2017-12-31T08:35:39.998Z,94.15
2017-12-31T08:36:44.392Z,94.02
2017-12-31T08:37:48.683Z,94.48
2017-12-31T08:38:53.071Z,94.45
2017-12-31T08:39:57.413Z,94.57
2017-12-31T08:41:02.146Z,94.41
2017-12-31T08:42:06.575Z,94.55
2017-12-31T08:43:10.909Z,94.80
2017-12-31T08:44:15.921Z,94.93
2017-12-31T08:45:20.505Z,94.94
2017-12-31T08:46:25.017Z,95.08
2017-12-31T08:47:29.341Z,95.23
2017-12-31T08:48:33.664Z,95.17
2017-12-31T08:49:38.188Z,95.27
2017-12-31T08:50:42.612Z,95.24
2017-12-31T08:51:49.204Z,95.44
2017-12-31T08:52:53.573Z,95.41
2017-12-31T08:53:58.300Z,95.40
2017-12-31T08:55:02.660Z,95.15
2017-12-31T08:56:07.192Z,95.24
2017-12-31T08:57:11.957Z,95.37
2017-12-31T08:58:16.772Z,95.42
2017-12-31T08:59:21.189Z,95.48
2017-12-31T09:00:26.701Z,95.52
2017-12-31T09:01:32.212Z,95.52
2017-12-31T09:02:36.728Z,95.68
2017-12-31T09:03:41.224Z,95.65
2017-12-31T09:04:46.639Z,95.58
2017-12-31T09:05:51.106Z,95.67
2017-12-31T09:06:55.544Z,95.75
2017-12-31T09:07:59.897Z,95.72
2017-12-31T09:09:04.378Z,95.75
2017-12-31T09:10:09.173Z,95.78
2017-12-31T09:11:13.890Z,95.79
2017-12-31T09:12:18.242Z,95.89
2017-12-31T09:13:22.625Z,95.91
2017-12-31T09:14:27.041Z,95.80
2017-12-31T09:15:32.328Z,95.77
2017-12-31T09:16:36.660Z,95.88
2017-12-31T09:17:41.462Z,95.83
2017-12-31T09:18:45.821Z,95.90
2017-12-31T09:19:52.359Z,95.76
2017-12-31T09:20:56.809Z,95.63
2017-12-31T09:22:01.179Z,95.68
2017-12-31T09:23:06.518Z,95.81
2017-12-31T09:24:10.900Z,95.71
2017-12-31T09:25:15.559Z,95.63
2017-12-31T09:26:19.913Z,95.72
2017-12-31T09:27:24.584Z,95.54
2017-12-31T09:28:30.251Z,95.62
2017-12-31T09:29:34.897Z,95.39
2017-12-31T09:30:39.233Z,95.25
2017-12-31T09:31:43.606Z,95.37
2017-12-31T09:32:47.985Z,95.40
2017-12-31T09:33:52.328Z,95.48
2017-12-31T09:34:56.703Z,95.52
2017-12-31T09:36:01.575Z,95.33
2017-12-31T09:37:06.009Z,95.25
2017-12-31T09:38:10.344Z,95.24
2017-12-31T09:39:14.706Z,95.20
2017-12-31T09:40:23.072Z,95.23
2017-12-31T09:41:27.659Z,95.17
2017-12-31T09:42:32.102Z,95.13
2017-12-31T09:43:36.446Z,95.22
2017-12-31T09:44:40.866Z,95.29
2017-12-31T09:45:45.485Z,95.27
2017-12-31T09:46:50.885Z,95.30
2017-12-31T09:47:55.349Z,95.28
2017-12-31T09:49:00.050Z,95.30
2017-12-31T09:50:04.358Z,95.24
2017-12-31T09:51:08.703Z,95.06
2017-12-31T09:52:13.049Z,95.04
2017-12-31T09:53:17.508Z,94.96
2017-12-31T09:54:21.996Z,94.78
2017-12-31T09:55:26.408Z,94.93
2017-12-31T09:56:31.516Z,94.91
2017-12-31T09:57:35.935Z,95.01
2017-12-31T09:58:41.069Z,95.00
2017-12-31T09:59:45.439Z,94.82
2017-12-31T10:00:51.007Z,94.74
2017-12-31T10:01:55.550Z,94.80
2017-12-31T10:02:59.968Z,94.80
2017-12-31T10:04:04.454Z,94.80
2017-12-31T10:05:08.876Z,94.69
2017-12-31T10:06:13.345Z,94.65
2017-12-31T10:07:19.825Z,94.66
2017-12-31T10:08:24.309Z,94.67
2017-12-31T10:09:28.901Z,94.45
2017-12-31T10:10:33.303Z,94.24
2017-12-31T10:11:37.661Z,94.16
2017-12-31T10:12:42.358Z,94.09
2017-12-31T10:13:46.948Z,94.16
2017-12-31T10:14:51.961Z,94.24
2017-12-31T10:15:56.437Z,94.29
2017-12-31T10:17:00.896Z,94.37
2017-12-31T10:18:05.537Z,94.33
2017-12-31T10:19:09.885Z,94.43
2017-12-31T10:20:14.300Z,94.35
2017-12-31T10:21:18.735Z,94.27
2017-12-31T10:22:23.290Z,94.40
2017-12-31T10:23:27.741Z,94.34
2017-12-31T10:24:32.416Z,94.36
2017-12-31T10:25:36.808Z,94.22
2017-12-31T10:26:41.323Z,94.19
2017-12-31T10:27:47.466Z,94.15
2017-12-31T10:28:52.793Z,93.90
2017-12-31T10:29:57.214Z,93.86
2017-12-31T10:31:01.910Z,93.84
2017-12-31T10:32:10.761Z,93.63
2017-12-31T10:33:15.291Z,93.11
2017-12-31T10:34:19.622Z,93.26
2017-12-31T10:35:23.977Z,93.15
2017-12-31T10:36:29.497Z,93.09
2017-12-31T10:37:34.449Z,93.01
2017-12-31T10:38:39.099Z,92.97
2017-12-31T10:39:43.449Z,93.05
2017-12-31T10:40:48.724Z,92.95
2017-12-31T10:41:53.145Z,93.01
2017-12-31T10:42:57.907Z,93.25
2017-12-31T10:44:02.628Z,93.08
2017-12-31T10:45:07.077Z,92.96
2017-12-31T10:46:11.758Z,92.95
2017-12-31T10:47:16.237Z,92.84
2017-12-31T10:48:20.603Z,92.90
2017-12-31T10:49:25.416Z,92.81
2017-12-31T10:50:29.834Z,92.79
2017-12-31T10:51:34.226Z,92.46
2017-12-31T10:52:38.610Z,92.65
2017-12-31T10:53:43.041Z,92.34
2017-12-31T10:54:47.942Z,92.25
2017-12-31T10:55:52.320Z,91.99
2017-12-31T10:56:57.418Z,92.21
2017-12-31T10:58:01.805Z,92.36
2017-12-31T10:59:06.192Z,91.99
2017-12-31T11:00:10.720Z,91.88
2017-12-31T11:01:15.547Z,91.94
2017-12-31T11:02:20.056Z,91.63
2017-12-31T11:03:24.449Z,91.63
2017-12-31T11:04:29.721Z,91.60
2017-12-31T11:05:34.209Z,91.77
2017-12-31T11:06:38.951Z,91.47
2017-12-31T11:07:43.348Z,91.23
2017-12-31T11:08:48.339Z,91.54
2017-12-31T11:09:52.696Z,91.34
2017-12-31T11:10:57.089Z,91.37
2017-12-31T11:12:01.601Z,90.72
2017-12-31T11:13:06.061Z,90.98
2017-12-31T11:14:16.500Z,90.93
2017-12-31T11:15:21.233Z,90.81
2017-12-31T11:16:37.503Z,90.66
2017-12-31T11:17:42.408Z,90.78
2017-12-31T11:18:46.808Z,90.73
2017-12-31T11:19:51.902Z,90.92
2017-12-31T11:20:56.339Z,90.76
2017-12-31T11:22:00.931Z,90.85
2017-12-31T11:23:05.437Z,91.04
2017-12-31T11:24:09.802Z,90.89
2017-12-31T11:25:14.231Z,90.78
2017-12-31T11:26:18.715Z,91.04
2017-12-31T11:27:23.094Z,91.26
2017-12-31T11:28:27.926Z,91.25
2017-12-31T11:30:47.069Z,91.21
2017-12-31T11:31:51.513Z,91.61
2017-12-31T11:32:56.010Z,91.98
2017-12-31T11:34:00.407Z,92.13
2017-12-31T11:35:05.245Z,92.34
2017-12-31T11:36:10.043Z,92.48
2017-12-31T11:37:14.697Z,92.83
2017-12-31T11:38:19.138Z,93.13
2017-12-31T11:39:24.136Z,93.15
2017-12-31T11:40:29.058Z,93.31
2017-12-31T11:41:34.235Z,93.28
2017-12-31T11:42:38.696Z,93.38
2017-12-31T11:43:43.114Z,93.36
2017-12-31T11:44:50.677Z,93.36
2017-12-31T11:45:55.273Z,93.55
2017-12-31T11:46:59.993Z,93.61
2017-12-31T11:48:04.512Z,93.72
2017-12-31T11:49:08.942Z,93.70
2017-12-31T11:50:15.375Z,93.82
2017-12-31T11:51:19.851Z,93.78
2017-12-31T11:52:24.551Z,93.86
2017-12-31T11:53:29.862Z,93.89
2017-12-31T11:54:34.238Z,93.93
2017-12-31T11:55:38.749Z,93.85
2017-12-31T11:56:43.405Z,93.72
2017-12-31T11:58:57.385Z,93.63
2017-12-31T12:00:02.214Z,93.51
2017-12-31T12:01:07.256Z,93.35
2017-12-31T12:02:14.450Z,93.41
2017-12-31T12:03:18.978Z,93.10
2017-12-31T12:04:23.692Z,93.05
2017-12-31T12:05:28.163Z,93.13
2017-12-31T12:06:33.459Z,92.84
2017-12-31T12:07:37.957Z,92.64
2017-12-31T12:08:42.510Z,92.41
2017-12-31T12:09:47.834Z,92.50
2017-12-31T12:10:52.234Z,92.64
2017-12-31T12:11:56.759Z,92.49
2017-12-31T12:13:01.269Z,92.77
2017-12-31T12:14:05.750Z,92.50
2017-12-31T12:15:11.825Z,92.40
2017-12-31T12:16:18.918Z,92.40
2017-12-31T12:17:23.363Z,92.09
2017-12-31T12:18:28.946Z,92.05
2017-12-31T12:19:33.383Z,91.93
2017-12-31T12:20:37.834Z,91.83
2017-12-31T12:21:42.708Z,91.76
2017-12-31T12:22:47.099Z,91.96
2017-12-31T12:23:52.545Z,92.15
2017-12-31T12:24:57.094Z,91.54
2017-12-31T12:26:01.568Z,91.34
2017-12-31T12:27:05.995Z,90.96
2017-12-31T12:28:10.803Z,90.96
2017-12-31T12:29:15.203Z,90.98
2017-12-31T12:30:20.192Z,90.77
2017-12-31T12:31:24.646Z,90.77
2017-12-31T12:32:31.482Z,90.98
2017-12-31T12:33:36.173Z,90.77
2017-12-31T12:34:41.001Z,90.49
2017-12-31T12:35:45.553Z,90.46
2017-12-31T12:36:50.837Z,90.47
2017-12-31T12:37:56.555Z,90.66
2017-12-31T12:39:00.981Z,89.93
2017-12-31T12:40:05.502Z,89.91
2017-12-31T12:41:10.042Z,89.71
2017-12-31T12:42:15.986Z,90.02
2017-12-31T12:43:20.498Z,90.07
2017-12-31T12:44:25.221Z,89.98
2017-12-31T12:45:30.192Z,90.18
2017-12-31T12:46:35.725Z,90.22
2017-12-31T12:47:40.259Z,89.88
2017-12-31T12:48:46.035Z,90.10
2017-12-31T12:49:50.536Z,90.11
2017-12-31T12:50:56.708Z,89.74
2017-12-31T12:52:01.307Z,89.76
2017-12-31T12:53:05.766Z,89.86
2017-12-31T12:54:10.199Z,89.64
2017-12-31T12:55:14.641Z,89.75
2017-12-31T12:56:19.280Z,89.56
2017-12-31T12:57:23.716Z,89.74
2017-12-31T12:58:28.262Z,89.82
2017-12-31T12:59:32.681Z,90.14
2017-12-31T13:00:37.443Z,89.87
2017-12-31T13:01:42.597Z,89.73
2017-12-31T13:02:47.367Z,89.80
2017-12-31T13:03:51.822Z,89.63
2017-12-31T13:04:56.342Z,89.55
2017-12-31T13:06:01.169Z,89.69
2017-12-31T13:07:05.645Z,90.06
2017-12-31T13:08:13.706Z,89.96
2017-12-31T13:09:18.695Z,89.96
2017-12-31T13:10:23.318Z,90.01
2017-12-31T13:11:27.733Z,89.97
2017-12-31T13:12:32.157Z,90.36
2017-12-31T13:13:36.714Z,90.77
2017-12-31T13:14:41.362Z,90.84
2017-12-31T13:15:46.037Z,91.14
2017-12-31T13:16:50.482Z,91.08
2017-12-31T13:17:54.917Z,91.25
2017-12-31T13:18:59.437Z,91.43
2017-12-31T13:20:03.889Z,91.80
2017-12-31T13:21:08.296Z,91.71
2017-12-31T13:22:12.817Z,92.10
2017-12-31T13:23:17.235Z,92.12
2017-12-31T13:24:30.219Z,92.28
2017-12-31T13:25:36.789Z,92.54
2017-12-31T13:26:41.289Z,92.63
2017-12-31T13:27:45.780Z,92.94
2017-12-31T13:28:50.277Z,92.64
2017-12-31T13:29:54.750Z,92.61
2017-12-31T13:31:00.697Z,92.65
2017-12-31T13:32:12.130Z,92.76
2017-12-31T13:33:16.566Z,92.99
2017-12-31T13:34:20.971Z,92.92
2017-12-31T13:35:25.436Z,92.93
2017-12-31T13:36:30.669Z,92.85
2017-12-31T13:37:35.398Z,92.82
2017-12-31T13:38:39.846Z,92.62
2017-12-31T13:39:44.242Z,92.66
2017-12-31T13:40:49.885Z,92.73
2017-12-31T13:41:54.362Z,92.79
2017-12-31T13:42:58.834Z,92.81
2017-12-31T13:44:04.715Z,92.89
2017-12-31T13:45:09.156Z,93.02
2017-12-31T13:46:14.013Z,93.07
2017-12-31T13:47:18.809Z,93.09
2017-12-31T13:48:24.538Z,93.19
2017-12-31T13:49:29.692Z,93.24
2017-12-31T13:50:34.639Z,93.21
2017-12-31T13:51:39.236Z,93.16
2017-12-31T13:52:43.640Z,93.20
2017-12-31T13:53:48.041Z,93.38
2017-12-31T13:54:52.457Z,93.32
2017-12-31T13:55:57.617Z,93.26
2017-12-31T13:57:02.384Z,93.38
2017-12-31T13:58:06.926Z,93.40
2017-12-31T13:59:12.416Z,93.37
2017-12-31T14:00:27.766Z,93.21